sensor_id;sensor_type;location;lat;lon;timestamp;temperature;humidity
7720;DHT22;3902;49.474;8.616;2022-12-05T00:00:33;5.60;99.90
7720;DHT22;3902;49.474;8.616;2022-12-05T00:03:03;5.60;99.90
7720;DHT22;3902;49.474;8.616;2022-12-05T00:05:29;5.50;99.90
7720;DHT22;3902;49.474;8.616;2022-12-05T00:07:55;5.60;99.90
7720;DHT22;3902;49.474;8.616;2022-12-05T00:10:20;5.50;99.90
7720;DHT22;3902;49.474;8.616;2022-12-05T00:12:46;5.50;99.90
7720;DHT22;3902;49.474;8.616;2022-12-05T00:15:12;5.50;99.90
7720;DHT22;3902;49.474;8.616;2022-12-05T00:17:38;5.50;99.90
7720;DHT22;3902;49.474;8.616;2022-12-05T00:20:05;5.50;99.90
7720;DHT22;3902;49.474;8.616;2022-12-05T00:22:35;5.50;99.90
7720;DHT22;3902;49.474;8.616;2022-12-05T00:25:01;5.50;99.90
7720;DHT22;3902;49.474;8.616;2022-12-05T00:27:27;5.50;99.90
7720;DHT22;3902;49.474;8.616;2022-12-05T00:29:52;5.50;99.90
7720;DHT22;3902;49.474;8.616;2022-12-05T00:32:18;5.50;99.90
7720;DHT22;3902;49.474;8.616;2022-12-05T00:34:44;5.60;99.90
7720;DHT22;3902;49.474;8.616;2022-12-05T00:37:09;5.50;99.90
7720;DHT22;3902;49.474;8.616;2022-12-05T00:39:35;5.60;99.90
7720;DHT22;3902;49.474;8.616;2022-12-05T00:42:00;5.60;99.90
7720;DHT22;3902;49.474;8.616;2022-12-05T00:44:26;5.60;99.90
7720;DHT22;3902;49.474;8.616;2022-12-05T00:46:51;5.60;99.90
7720;DHT22;3902;49.474;8.616;2022-12-05T00:49:17;5.60;99.90
7720;DHT22;3902;49.474;8.616;2022-12-05T00:51:42;5.60;99.90
7720;DHT22;3902;49.474;8.616;2022-12-05T00:54:11;5.60;99.90
7720;DHT22;3902;49.474;8.616;2022-12-05T00:56:37;5.60;99.90
7720;DHT22;3902;49.474;8.616;2022-12-05T00:59:03;5.60;99.90
7720;DHT22;3902;49.474;8.616;2022-12-05T01:01:33;5.60;99.90
7720;DHT22;3902;49.474;8.616;2022-12-05T01:04:02;5.60;99.90
7720;DHT22;3902;49.474;8.616;2022-12-05T01:06:28;5.60;99.90
7720;DHT22;3902;49.474;8.616;2022-12-05T01:08:55;5.60;99.90
7720;DHT22;3902;49.474;8.616;2022-12-05T01:11:21;5.60;99.90
7720;DHT22;3902;49.474;8.616;2022-12-05T01:13:47;5.60;99.90
7720;DHT22;3902;49.474;8.616;2022-12-05T01:16:22;5.60;99.90
7720;DHT22;3902;49.474;8.616;2022-12-05T01:18:49;5.60;99.90
7720;DHT22;3902;49.474;8.616;2022-12-05T01:21:15;5.60;99.90
7720;DHT22;3902;49.474;8.616;2022-12-05T01:23:40;5.60;99.90
7720;DHT22;3902;49.474;8.616;2022-12-05T01:26:08;5.60;99.90
7720;DHT22;3902;49.474;8.616;2022-12-05T01:28:35;5.60;99.90
7720;DHT22;3902;49.474;8.616;2022-12-05T01:31:10;5.60;99.90
7720;DHT22;3902;49.474;8.616;2022-12-05T01:33:36;5.60;99.90
7720;DHT22;3902;49.474;8.616;2022-12-05T01:36:02;5.60;99.90
7720;DHT22;3902;49.474;8.616;2022-12-05T01:38:28;5.50;99.90
7720;DHT22;3902;49.474;8.616;2022-12-05T01:41:03;5.50;99.90
7720;DHT22;3902;49.474;8.616;2022-12-05T01:43:30;5.60;99.90
7720;DHT22;3902;49.474;8.616;2022-12-05T01:45:55;5.60;99.90
7720;DHT22;3902;49.474;8.616;2022-12-05T01:48:30;5.60;99.90
7720;DHT22;3902;49.474;8.616;2022-12-05T01:50:58;5.60;99.90
7720;DHT22;3902;49.474;8.616;2022-12-05T01:53:25;5.60;99.90
7720;DHT22;3902;49.474;8.616;2022-12-05T01:55:51;5.60;99.90
7720;DHT22;3902;49.474;8.616;2022-12-05T01:58:18;5.60;99.90
7720;DHT22;3902;49.474;8.616;2022-12-05T02:00:44;5.60;99.90
7720;DHT22;3902;49.474;8.616;2022-12-05T02:03:16;5.60;99.90
7720;DHT22;3902;49.474;8.616;2022-12-05T02:05:43;5.60;99.90
7720;DHT22;3902;49.474;8.616;2022-12-05T02:08:11;5.60;99.90
7720;DHT22;3902;49.474;8.616;2022-12-05T02:10:43;5.60;99.90
7720;DHT22;3902;49.474;8.616;2022-12-05T02:19:00;5.60;99.90
7720;DHT22;3902;49.474;8.616;2022-12-05T02:21:46;5.60;99.90
7720;DHT22;3902;49.474;8.616;2022-12-05T02:24:27;5.50;99.90
7720;DHT22;3902;49.474;8.616;2022-12-05T02:32:31;5.60;99.90
7720;DHT22;3902;49.474;8.616;2022-12-05T02:38:01;5.50;99.90
7720;DHT22;3902;49.474;8.616;2022-12-05T02:40:45;5.50;99.90
7720;DHT22;3902;49.474;8.616;2022-12-05T02:43:21;5.50;99.90
7720;DHT22;3902;49.474;8.616;2022-12-05T02:45:53;5.60;99.90
7720;DHT22;3902;49.474;8.616;2022-12-05T02:48:19;5.50;99.90
7720;DHT22;3902;49.474;8.616;2022-12-05T02:50:46;5.50;99.90
7720;DHT22;3902;49.474;8.616;2022-12-05T02:53:14;5.50;99.90
7720;DHT22;3902;49.474;8.616;2022-12-05T02:55:42;5.50;99.90
7720;DHT22;3902;49.474;8.616;2022-12-05T02:58:13;5.50;99.90
7720;DHT22;3902;49.474;8.616;2022-12-05T03:00:43;5.60;99.90
7720;DHT22;3902;49.474;8.616;2022-12-05T03:03:17;5.50;99.90
7720;DHT22;3902;49.474;8.616;2022-12-05T03:06:06;5.60;99.90
7720;DHT22;3902;49.474;8.616;2022-12-05T03:08:43;5.60;99.90
7720;DHT22;3902;49.474;8.616;2022-12-05T03:11:12;5.60;99.90
7720;DHT22;3902;49.474;8.616;2022-12-05T03:13:42;5.50;99.90
7720;DHT22;3902;49.474;8.616;2022-12-05T03:16:20;5.50;99.90
7720;DHT22;3902;49.474;8.616;2022-12-05T03:18:50;5.50;99.90
7720;DHT22;3902;49.474;8.616;2022-12-05T03:21:26;5.50;99.90
7720;DHT22;3902;49.474;8.616;2022-12-05T03:23:59;5.40;99.90
7720;DHT22;3902;49.474;8.616;2022-12-05T03:32:10;5.40;99.90
7720;DHT22;3902;49.474;8.616;2022-12-05T03:34:53;5.30;99.90
7720;DHT22;3902;49.474;8.616;2022-12-05T03:37:49;5.40;99.90
7720;DHT22;3902;49.474;8.616;2022-12-05T03:40:26;5.40;99.90
7720;DHT22;3902;49.474;8.616;2022-12-05T03:45:58;5.40;99.90
7720;DHT22;3902;49.474;8.616;2022-12-05T03:48:32;5.40;99.90
7720;DHT22;3902;49.474;8.616;2022-12-05T03:51:00;5.40;99.90
7720;DHT22;3902;49.474;8.616;2022-12-05T03:53:51;5.40;99.90
7720;DHT22;3902;49.474;8.616;2022-12-05T03:56:21;5.30;99.90
7720;DHT22;3902;49.474;8.616;2022-12-05T03:59:06;5.30;99.90
7720;DHT22;3902;49.474;8.616;2022-12-05T04:01:33;5.30;99.90
7720;DHT22;3902;49.474;8.616;2022-12-05T04:04:07;5.30;99.90
7720;DHT22;3902;49.474;8.616;2022-12-05T04:06:37;5.30;99.90
7720;DHT22;3902;49.474;8.616;2022-12-05T04:09:10;5.30;99.90
7720;DHT22;3902;49.474;8.616;2022-12-05T04:11:41;5.30;99.90
7720;DHT22;3902;49.474;8.616;2022-12-05T04:14:21;5.30;99.90
7720;DHT22;3902;49.474;8.616;2022-12-05T04:17:51;5.30;99.90
7720;DHT22;3902;49.474;8.616;2022-12-05T04:19:50;5.30;99.90
7720;DHT22;3902;49.474;8.616;2022-12-05T04:22:36;5.40;99.90
7720;DHT22;3902;49.474;8.616;2022-12-05T04:25:04;5.40;99.90
7720;DHT22;3902;49.474;8.616;2022-12-05T04:38:57;5.50;99.90
7720;DHT22;3902;49.474;8.616;2022-12-05T04:41:31;5.50;99.90
7720;DHT22;3902;49.474;8.616;2022-12-05T04:44:02;5.60;99.90
7720;DHT22;3902;49.474;8.616;2022-12-05T04:46:29;5.60;99.90
7720;DHT22;3902;49.474;8.616;2022-12-05T04:48:58;5.60;99.90
7720;DHT22;3902;49.474;8.616;2022-12-05T04:51:26;5.60;99.90
7720;DHT22;3902;49.474;8.616;2022-12-05T04:54:03;5.60;99.90
7720;DHT22;3902;49.474;8.616;2022-12-05T04:56:35;5.60;99.90
7720;DHT22;3902;49.474;8.616;2022-12-05T04:59:02;5.60;99.90
7720;DHT22;3902;49.474;8.616;2022-12-05T05:01:54;5.60;99.90
7720;DHT22;3902;49.474;8.616;2022-12-05T05:04:26;5.60;99.90
7720;DHT22;3902;49.474;8.616;2022-12-05T05:06:53;5.60;99.90
7720;DHT22;3902;49.474;8.616;2022-12-05T05:09:19;5.60;99.90
7720;DHT22;3902;49.474;8.616;2022-12-05T05:11:44;5.60;99.90
7720;DHT22;3902;49.474;8.616;2022-12-05T05:14:10;5.60;99.90
7720;DHT22;3902;49.474;8.616;2022-12-05T05:16:38;5.70;99.90
7720;DHT22;3902;49.474;8.616;2022-12-05T05:19:05;5.70;99.90
7720;DHT22;3902;49.474;8.616;2022-12-05T05:21:34;5.60;99.90
7720;DHT22;3902;49.474;8.616;2022-12-05T05:24:00;5.70;99.90
7720;DHT22;3902;49.474;8.616;2022-12-05T05:26:27;5.70;99.90
7720;DHT22;3902;49.474;8.616;2022-12-05T05:28:52;5.70;99.90
7720;DHT22;3902;49.474;8.616;2022-12-05T05:31:18;5.70;99.90
7720;DHT22;3902;49.474;8.616;2022-12-05T05:33:51;5.70;99.90
7720;DHT22;3902;49.474;8.616;2022-12-05T05:36:18;5.70;99.90
7720;DHT22;3902;49.474;8.616;2022-12-05T05:38:46;5.70;99.90
7720;DHT22;3902;49.474;8.616;2022-12-05T05:41:13;5.70;99.90
7720;DHT22;3902;49.474;8.616;2022-12-05T05:43:40;5.70;99.90
7720;DHT22;3902;49.474;8.616;2022-12-05T05:46:05;5.70;99.90
7720;DHT22;3902;49.474;8.616;2022-12-05T05:48:31;5.70;99.90
7720;DHT22;3902;49.474;8.616;2022-12-05T05:51:05;5.70;99.90
7720;DHT22;3902;49.474;8.616;2022-12-05T05:53:31;5.70;99.90
7720;DHT22;3902;49.474;8.616;2022-12-05T05:56:02;5.70;99.90
7720;DHT22;3902;49.474;8.616;2022-12-05T05:58:27;5.70;99.90
7720;DHT22;3902;49.474;8.616;2022-12-05T06:00:53;5.70;99.90
7720;DHT22;3902;49.474;8.616;2022-12-05T06:03:18;5.70;99.90
7720;DHT22;3902;49.474;8.616;2022-12-05T06:05:44;5.60;99.90
7720;DHT22;3902;49.474;8.616;2022-12-05T06:08:09;5.60;99.90
7720;DHT22;3902;49.474;8.616;2022-12-05T06:10:37;5.60;99.90
7720;DHT22;3902;49.474;8.616;2022-12-05T06:13:03;5.60;99.90
7720;DHT22;3902;49.474;8.616;2022-12-05T06:15:28;5.60;99.90
7720;DHT22;3902;49.474;8.616;2022-12-05T06:17:55;5.60;99.90
7720;DHT22;3902;49.474;8.616;2022-12-05T06:20:20;5.60;99.90
7720;DHT22;3902;49.474;8.616;2022-12-05T06:22:46;5.60;99.90
7720;DHT22;3902;49.474;8.616;2022-12-05T06:25:11;5.70;99.90
7720;DHT22;3902;49.474;8.616;2022-12-05T06:27:37;5.60;99.90
7720;DHT22;3902;49.474;8.616;2022-12-05T06:30:03;5.70;99.90
7720;DHT22;3902;49.474;8.616;2022-12-05T06:32:29;5.70;99.90
7720;DHT22;3902;49.474;8.616;2022-12-05T06:34:54;5.70;99.90
7720;DHT22;3902;49.474;8.616;2022-12-05T06:37:20;5.70;99.90
7720;DHT22;3902;49.474;8.616;2022-12-05T06:39:45;5.70;99.90
7720;DHT22;3902;49.474;8.616;2022-12-05T06:42:11;5.70;99.90
7720;DHT22;3902;49.474;8.616;2022-12-05T06:44:37;5.70;99.90
7720;DHT22;3902;49.474;8.616;2022-12-05T06:47:02;5.70;99.90
7720;DHT22;3902;49.474;8.616;2022-12-05T06:49:28;5.70;99.90
7720;DHT22;3902;49.474;8.616;2022-12-05T06:51:57;5.70;99.90
7720;DHT22;3902;49.474;8.616;2022-12-05T06:54:23;5.60;99.90
7720;DHT22;3902;49.474;8.616;2022-12-05T06:56:49;5.60;99.90
7720;DHT22;3902;49.474;8.616;2022-12-05T06:59:15;5.60;99.90
7720;DHT22;3902;49.474;8.616;2022-12-05T07:01:40;5.60;99.90
7720;DHT22;3902;49.474;8.616;2022-12-05T07:06:34;5.60;99.90
7720;DHT22;3902;49.474;8.616;2022-12-05T07:09:01;5.60;99.90
7720;DHT22;3902;49.474;8.616;2022-12-05T07:11:27;5.60;99.90
7720;DHT22;3902;49.474;8.616;2022-12-05T07:13:52;5.60;99.90
7720;DHT22;3902;49.474;8.616;2022-12-05T07:16:18;5.60;99.90
7720;DHT22;3902;49.474;8.616;2022-12-05T07:18:43;5.70;99.90
7720;DHT22;3902;49.474;8.616;2022-12-05T07:21:12;5.70;99.90
7720;DHT22;3902;49.474;8.616;2022-12-05T07:23:38;5.70;99.90
7720;DHT22;3902;49.474;8.616;2022-12-05T07:26:08;5.70;99.90
7720;DHT22;3902;49.474;8.616;2022-12-05T07:28:34;5.70;99.90
7720;DHT22;3902;49.474;8.616;2022-12-05T07:31:05;5.70;99.90
7720;DHT22;3902;49.474;8.616;2022-12-05T07:33:31;5.70;99.90
7720;DHT22;3902;49.474;8.616;2022-12-05T07:36:05;5.70;99.90
7720;DHT22;3902;49.474;8.616;2022-12-05T07:38:31;5.80;99.90
7720;DHT22;3902;49.474;8.616;2022-12-05T07:40:57;5.70;99.90
7720;DHT22;3902;49.474;8.616;2022-12-05T07:43:22;5.70;99.90
7720;DHT22;3902;49.474;8.616;2022-12-05T07:45:49;5.80;99.90
7720;DHT22;3902;49.474;8.616;2022-12-05T07:48:15;5.80;99.90
7720;DHT22;3902;49.474;8.616;2022-12-05T07:50:40;5.80;99.90
7720;DHT22;3902;49.474;8.616;2022-12-05T07:53:06;5.80;99.90
7720;DHT22;3902;49.474;8.616;2022-12-05T07:55:31;5.80;99.90
7720;DHT22;3902;49.474;8.616;2022-12-05T07:57:57;5.80;99.90
7720;DHT22;3902;49.474;8.616;2022-12-05T08:00:22;5.80;99.90
7720;DHT22;3902;49.474;8.616;2022-12-05T08:02:48;5.80;99.90
7720;DHT22;3902;49.474;8.616;2022-12-05T08:05:13;5.80;99.90
7720;DHT22;3902;49.474;8.616;2022-12-05T08:07:40;5.80;99.90
7720;DHT22;3902;49.474;8.616;2022-12-05T08:10:06;5.80;99.90
7720;DHT22;3902;49.474;8.616;2022-12-05T08:12:32;5.90;99.90
7720;DHT22;3902;49.474;8.616;2022-12-05T08:14:57;5.90;99.90
7720;DHT22;3902;49.474;8.616;2022-12-05T08:17:23;5.90;99.90
7720;DHT22;3902;49.474;8.616;2022-12-05T08:19:49;5.90;99.90
7720;DHT22;3902;49.474;8.616;2022-12-05T08:22:14;5.90;99.90
7720;DHT22;3902;49.474;8.616;2022-12-05T08:24:40;5.90;99.90
7720;DHT22;3902;49.474;8.616;2022-12-05T08:27:05;5.90;99.90
7720;DHT22;3902;49.474;8.616;2022-12-05T08:29:31;5.90;99.90
7720;DHT22;3902;49.474;8.616;2022-12-05T08:31:57;5.90;99.90
7720;DHT22;3902;49.474;8.616;2022-12-05T08:34:23;6.00;99.90
7720;DHT22;3902;49.474;8.616;2022-12-05T08:36:48;5.90;99.90
7720;DHT22;3902;49.474;8.616;2022-12-05T08:39:16;5.90;99.90
7720;DHT22;3902;49.474;8.616;2022-12-05T08:41:43;6.00;99.90
7720;DHT22;3902;49.474;8.616;2022-12-05T08:44:09;6.00;99.90
7720;DHT22;3902;49.474;8.616;2022-12-05T08:46:40;6.00;99.90
7720;DHT22;3902;49.474;8.616;2022-12-05T08:49:06;6.00;99.90
7720;DHT22;3902;49.474;8.616;2022-12-05T08:51:31;6.00;99.90
7720;DHT22;3902;49.474;8.616;2022-12-05T08:53:57;6.00;99.90
7720;DHT22;3902;49.474;8.616;2022-12-05T08:56:24;6.00;99.90
7720;DHT22;3902;49.474;8.616;2022-12-05T08:58:49;6.00;99.90
7720;DHT22;3902;49.474;8.616;2022-12-05T09:01:20;6.10;99.90
7720;DHT22;3902;49.474;8.616;2022-12-05T09:03:46;6.10;99.90
7720;DHT22;3902;49.474;8.616;2022-12-05T09:08:39;6.10;99.90
7720;DHT22;3902;49.474;8.616;2022-12-05T09:11:07;6.10;99.90
7720;DHT22;3902;49.474;8.616;2022-12-05T09:13:33;6.10;99.90
7720;DHT22;3902;49.474;8.616;2022-12-05T09:16:04;6.10;99.90
7720;DHT22;3902;49.474;8.616;2022-12-05T09:18:30;6.10;99.90
7720;DHT22;3902;49.474;8.616;2022-12-05T09:20:56;6.10;99.90
7720;DHT22;3902;49.474;8.616;2022-12-05T09:23:21;6.10;99.90
7720;DHT22;3902;49.474;8.616;2022-12-05T09:25:52;6.20;99.90
7720;DHT22;3902;49.474;8.616;2022-12-05T09:28:20;6.20;99.90
7720;DHT22;3902;49.474;8.616;2022-12-05T09:30:55;6.20;99.90
7720;DHT22;3902;49.474;8.616;2022-12-05T09:33:20;6.20;99.90
7720;DHT22;3902;49.474;8.616;2022-12-05T09:35:46;6.20;99.90
7720;DHT22;3902;49.474;8.616;2022-12-05T09:38:11;6.30;99.90
7720;DHT22;3902;49.474;8.616;2022-12-05T09:40:41;6.30;99.90
7720;DHT22;3902;49.474;8.616;2022-12-05T09:43:12;6.30;99.90
7720;DHT22;3902;49.474;8.616;2022-12-05T09:45:44;6.30;99.90
7720;DHT22;3902;49.474;8.616;2022-12-05T09:48:18;6.30;99.90
7720;DHT22;3902;49.474;8.616;2022-12-05T09:50:59;6.20;99.90
7720;DHT22;3902;49.474;8.616;2022-12-05T09:53:39;6.20;99.90
7720;DHT22;3902;49.474;8.616;2022-12-05T09:56:12;6.30;99.90
7720;DHT22;3902;49.474;8.616;2022-12-05T09:58:50;6.30;99.90
7720;DHT22;3902;49.474;8.616;2022-12-05T10:15:23;6.30;99.90
7720;DHT22;3902;49.474;8.616;2022-12-05T10:18:00;6.30;99.90
7720;DHT22;3902;49.474;8.616;2022-12-05T10:20:32;6.30;99.90
7720;DHT22;3902;49.474;8.616;2022-12-05T10:23:07;6.30;99.90
7720;DHT22;3902;49.474;8.616;2022-12-05T10:25:36;6.30;99.90
7720;DHT22;3902;49.474;8.616;2022-12-05T10:28:17;6.30;99.90
7720;DHT22;3902;49.474;8.616;2022-12-05T10:30:46;6.40;99.90
7720;DHT22;3902;49.474;8.616;2022-12-05T10:33:16;6.40;99.90
7720;DHT22;3902;49.474;8.616;2022-12-05T10:35:43;6.40;99.90
7720;DHT22;3902;49.474;8.616;2022-12-05T10:38:24;6.40;99.90
7720;DHT22;3902;49.474;8.616;2022-12-05T10:40:54;6.40;99.90
7720;DHT22;3902;49.474;8.616;2022-12-05T10:43:30;6.40;99.90
7720;DHT22;3902;49.474;8.616;2022-12-05T10:45:57;6.40;99.90
7720;DHT22;3902;49.474;8.616;2022-12-05T10:48:23;6.40;99.90
7720;DHT22;3902;49.474;8.616;2022-12-05T10:50:52;6.40;99.90
7720;DHT22;3902;49.474;8.616;2022-12-05T10:53:39;6.40;99.90
7720;DHT22;3902;49.474;8.616;2022-12-05T10:59:14;6.40;99.90
7720;DHT22;3902;49.474;8.616;2022-12-05T11:01:52;6.40;99.90
7720;DHT22;3902;49.474;8.616;2022-12-05T11:04:30;6.40;99.90
7720;DHT22;3902;49.474;8.616;2022-12-05T11:07:03;6.40;99.90
7720;DHT22;3902;49.474;8.616;2022-12-05T11:09:31;6.40;99.90
7720;DHT22;3902;49.474;8.616;2022-12-05T11:15:00;6.40;99.90
7720;DHT22;3902;49.474;8.616;2022-12-05T11:17:36;6.40;99.90
7720;DHT22;3902;49.474;8.616;2022-12-05T11:20:33;6.50;99.90
7720;DHT22;3902;49.474;8.616;2022-12-05T11:22:54;6.50;99.90
7720;DHT22;3902;49.474;8.616;2022-12-05T11:25:30;6.50;99.90
7720;DHT22;3902;49.474;8.616;2022-12-05T11:27:57;6.50;99.90
7720;DHT22;3902;49.474;8.616;2022-12-05T11:30:25;6.50;99.90
7720;DHT22;3902;49.474;8.616;2022-12-05T11:33:19;6.50;99.90
7720;DHT22;3902;49.474;8.616;2022-12-05T11:35:46;6.50;99.90
7720;DHT22;3902;49.474;8.616;2022-12-05T11:38:13;6.50;99.90
7720;DHT22;3902;49.474;8.616;2022-12-05T11:40:52;6.60;99.90
7720;DHT22;3902;49.474;8.616;2022-12-05T11:44:00;6.50;99.90
7720;DHT22;3902;49.474;8.616;2022-12-05T11:46:51;6.60;99.90
7720;DHT22;3902;49.474;8.616;2022-12-05T11:55:34;6.50;99.90
7720;DHT22;3902;49.474;8.616;2022-12-05T12:06:24;6.60;99.90
7720;DHT22;3902;49.474;8.616;2022-12-05T12:12:06;6.60;99.90
7720;DHT22;3902;49.474;8.616;2022-12-05T12:14:51;6.70;99.90
7720;DHT22;3902;49.474;8.616;2022-12-05T12:17:33;6.70;99.90
7720;DHT22;3902;49.474;8.616;2022-12-05T12:20:15;6.70;99.90
7720;DHT22;3902;49.474;8.616;2022-12-05T12:23:01;6.70;99.90
7720;DHT22;3902;49.474;8.616;2022-12-05T12:26:03;6.70;99.90
7720;DHT22;3902;49.474;8.616;2022-12-05T12:28:49;6.70;99.90
7720;DHT22;3902;49.474;8.616;2022-12-05T12:31:21;6.70;99.90
7720;DHT22;3902;49.474;8.616;2022-12-05T12:34:15;6.60;99.90
7720;DHT22;3902;49.474;8.616;2022-12-05T12:37:01;6.60;99.90
7720;DHT22;3902;49.474;8.616;2022-12-05T12:42:15;6.70;99.90
7720;DHT22;3902;49.474;8.616;2022-12-05T12:47:40;6.80;99.90
7720;DHT22;3902;49.474;8.616;2022-12-05T12:50:27;6.80;99.90
7720;DHT22;3902;49.474;8.616;2022-12-05T12:58:30;6.90;99.90
7720;DHT22;3902;49.474;8.616;2022-12-05T13:01:29;6.90;99.90
7720;DHT22;3902;49.474;8.616;2022-12-05T13:04:13;7.00;99.90
7720;DHT22;3902;49.474;8.616;2022-12-05T13:09:28;7.00;99.90
7720;DHT22;3902;49.474;8.616;2022-12-05T13:11:59;7.10;99.90
7720;DHT22;3902;49.474;8.616;2022-12-05T13:14:28;7.00;99.90
7720;DHT22;3902;49.474;8.616;2022-12-05T13:16:54;7.10;99.90
7720;DHT22;3902;49.474;8.616;2022-12-05T13:21:55;7.00;99.90
7720;DHT22;3902;49.474;8.616;2022-12-05T13:24:25;7.10;99.90
7720;DHT22;3902;49.474;8.616;2022-12-05T13:26:51;7.10;99.90
7720;DHT22;3902;49.474;8.616;2022-12-05T13:29:28;7.00;99.90
7720;DHT22;3902;49.474;8.616;2022-12-05T13:31:55;7.00;99.90
7720;DHT22;3902;49.474;8.616;2022-12-05T13:34:44;7.00;99.90
7720;DHT22;3902;49.474;8.616;2022-12-05T13:37:18;7.00;99.90
7720;DHT22;3902;49.474;8.616;2022-12-05T13:40:03;7.00;99.90
7720;DHT22;3902;49.474;8.616;2022-12-05T13:42:59;7.00;99.90
7720;DHT22;3902;49.474;8.616;2022-12-05T13:45:25;7.00;99.90
7720;DHT22;3902;49.474;8.616;2022-12-05T13:48:08;7.00;99.90
7720;DHT22;3902;49.474;8.616;2022-12-05T13:51:10;7.00;99.90
7720;DHT22;3902;49.474;8.616;2022-12-05T13:53:44;7.00;99.90
7720;DHT22;3902;49.474;8.616;2022-12-05T13:58:50;7.00;99.90
7720;DHT22;3902;49.474;8.616;2022-12-05T14:09:03;7.00;99.90
7720;DHT22;3902;49.474;8.616;2022-12-05T14:11:29;7.00;99.90
7720;DHT22;3902;49.474;8.616;2022-12-05T14:13:54;7.00;99.90
7720;DHT22;3902;49.474;8.616;2022-12-05T14:19:01;7.10;99.90
7720;DHT22;3902;49.474;8.616;2022-12-05T14:21:47;7.10;99.90
7720;DHT22;3902;49.474;8.616;2022-12-05T14:24:22;7.10;99.90
7720;DHT22;3902;49.474;8.616;2022-12-05T14:27:10;7.10;99.90
7720;DHT22;3902;49.474;8.616;2022-12-05T14:32:35;7.10;99.90
7720;DHT22;3902;49.474;8.616;2022-12-05T14:35:23;7.10;99.90
7720;DHT22;3902;49.474;8.616;2022-12-05T14:37:58;7.10;99.90
7720;DHT22;3902;49.474;8.616;2022-12-05T14:40:39;7.10;99.90
7720;DHT22;3902;49.474;8.616;2022-12-05T14:43:21;7.00;99.90
7720;DHT22;3902;49.474;8.616;2022-12-05T14:50:49;6.90;99.90
7720;DHT22;3902;49.474;8.616;2022-12-05T15:01:04;6.70;99.90
7720;DHT22;3902;49.474;8.616;2022-12-05T15:03:34;6.70;99.90
7720;DHT22;3902;49.474;8.616;2022-12-05T15:06:04;6.70;99.90
7720;DHT22;3902;49.474;8.616;2022-12-05T15:08:42;6.70;99.90
7720;DHT22;3902;49.474;8.616;2022-12-05T15:11:16;6.70;99.90
7720;DHT22;3902;49.474;8.616;2022-12-05T15:16:35;6.60;99.90
7720;DHT22;3902;49.474;8.616;2022-12-05T15:19:05;6.60;99.90
7720;DHT22;3902;49.474;8.616;2022-12-05T15:21:38;6.60;99.90
7720;DHT22;3902;49.474;8.616;2022-12-05T15:24:12;6.70;99.90
7720;DHT22;3902;49.474;8.616;2022-12-05T15:31:58;6.80;99.90
7720;DHT22;3902;49.474;8.616;2022-12-05T15:39:59;6.80;99.90
7720;DHT22;3902;49.474;8.616;2022-12-05T15:42:28;6.80;99.90
7720;DHT22;3902;49.474;8.616;2022-12-05T15:47:43;6.80;99.90
7720;DHT22;3902;49.474;8.616;2022-12-05T15:55:40;6.80;99.90
7720;DHT22;3902;49.474;8.616;2022-12-05T15:58:24;6.80;99.90
7720;DHT22;3902;49.474;8.616;2022-12-05T16:01:10;6.80;99.90
7720;DHT22;3902;49.474;8.616;2022-12-05T16:03:46;6.70;99.90
7720;DHT22;3902;49.474;8.616;2022-12-05T16:08:51;6.80;99.90
7720;DHT22;3902;49.474;8.616;2022-12-05T16:11:17;6.70;99.90
7720;DHT22;3902;49.474;8.616;2022-12-05T16:13:45;6.70;99.90
7720;DHT22;3902;49.474;8.616;2022-12-05T16:16:22;6.70;99.90
7720;DHT22;3902;49.474;8.616;2022-12-05T16:18:53;6.70;99.90
7720;DHT22;3902;49.474;8.616;2022-12-05T16:21:36;6.70;99.90
7720;DHT22;3902;49.474;8.616;2022-12-05T16:24:06;6.70;99.90
7720;DHT22;3902;49.474;8.616;2022-12-05T16:26:38;6.70;99.90
7720;DHT22;3902;49.474;8.616;2022-12-05T16:29:05;6.60;99.90
7720;DHT22;3902;49.474;8.616;2022-12-05T16:31:34;6.60;99.90
7720;DHT22;3902;49.474;8.616;2022-12-05T16:34:06;6.60;99.90
7720;DHT22;3902;49.474;8.616;2022-12-05T16:36:32;6.60;99.90
7720;DHT22;3902;49.474;8.616;2022-12-05T16:39:05;6.60;99.90
7720;DHT22;3902;49.474;8.616;2022-12-05T16:41:36;6.60;99.90
7720;DHT22;3902;49.474;8.616;2022-12-05T16:44:03;6.60;99.90
7720;DHT22;3902;49.474;8.616;2022-12-05T16:49:31;6.60;99.90
7720;DHT22;3902;49.474;8.616;2022-12-05T16:52:17;6.60;99.90
7720;DHT22;3902;49.474;8.616;2022-12-05T16:54:47;6.60;99.90
7720;DHT22;3902;49.474;8.616;2022-12-05T16:57:16;6.60;99.90
7720;DHT22;3902;49.474;8.616;2022-12-05T16:59:42;6.60;99.90
7720;DHT22;3902;49.474;8.616;2022-12-05T17:02:12;6.60;99.90
7720;DHT22;3902;49.474;8.616;2022-12-05T17:04:38;6.60;99.90
7720;DHT22;3902;49.474;8.616;2022-12-05T17:07:03;6.60;99.90
7720;DHT22;3902;49.474;8.616;2022-12-05T17:09:29;6.60;99.90
7720;DHT22;3902;49.474;8.616;2022-12-05T17:12:02;6.60;99.90
7720;DHT22;3902;49.474;8.616;2022-12-05T17:14:28;6.60;99.90
7720;DHT22;3902;49.474;8.616;2022-12-05T17:16:54;6.60;99.90
7720;DHT22;3902;49.474;8.616;2022-12-05T17:19:19;6.60;99.90
7720;DHT22;3902;49.474;8.616;2022-12-05T17:21:45;6.60;99.90
7720;DHT22;3902;49.474;8.616;2022-12-05T17:24:17;6.60;99.90
7720;DHT22;3902;49.474;8.616;2022-12-05T17:26:44;6.60;99.90
7720;DHT22;3902;49.474;8.616;2022-12-05T17:29:10;6.60;99.90
7720;DHT22;3902;49.474;8.616;2022-12-05T17:31:35;6.60;99.90
7720;DHT22;3902;49.474;8.616;2022-12-05T17:34:01;6.60;99.90
7720;DHT22;3902;49.474;8.616;2022-12-05T17:36:27;6.60;99.90
7720;DHT22;3902;49.474;8.616;2022-12-05T17:38:52;6.60;99.90
7720;DHT22;3902;49.474;8.616;2022-12-05T17:41:22;6.60;99.90
7720;DHT22;3902;49.474;8.616;2022-12-05T17:43:48;6.60;99.90
7720;DHT22;3902;49.474;8.616;2022-12-05T17:46:18;6.60;99.90
7720;DHT22;3902;49.474;8.616;2022-12-05T17:48:45;6.60;99.90
7720;DHT22;3902;49.474;8.616;2022-12-05T17:51:10;6.60;99.90
7720;DHT22;3902;49.474;8.616;2022-12-05T17:53:37;6.60;99.90
7720;DHT22;3902;49.474;8.616;2022-12-05T17:56:03;6.60;99.90
7720;DHT22;3902;49.474;8.616;2022-12-05T17:58:29;6.60;99.90
7720;DHT22;3902;49.474;8.616;2022-12-05T18:00:55;6.60;99.90
7720;DHT22;3902;49.474;8.616;2022-12-05T18:03:20;6.60;99.90
7720;DHT22;3902;49.474;8.616;2022-12-05T18:05:46;6.60;99.90
7720;DHT22;3902;49.474;8.616;2022-12-05T18:08:12;6.60;99.90
7720;DHT22;3902;49.474;8.616;2022-12-05T18:10:46;6.60;99.90
7720;DHT22;3902;49.474;8.616;2022-12-05T18:13:13;6.60;99.90
7720;DHT22;3902;49.474;8.616;2022-12-05T18:15:39;6.60;99.90
7720;DHT22;3902;49.474;8.616;2022-12-05T18:18:06;6.60;99.90
7720;DHT22;3902;49.474;8.616;2022-12-05T18:20:33;6.60;99.90
7720;DHT22;3902;49.474;8.616;2022-12-05T18:23:00;6.60;99.90
7720;DHT22;3902;49.474;8.616;2022-12-05T18:25:27;6.60;99.90
7720;DHT22;3902;49.474;8.616;2022-12-05T18:27:52;6.60;99.90
7720;DHT22;3902;49.474;8.616;2022-12-05T18:30:18;6.60;99.90
7720;DHT22;3902;49.474;8.616;2022-12-05T18:32:43;6.60;99.90
7720;DHT22;3902;49.474;8.616;2022-12-05T18:35:09;6.60;99.90
7720;DHT22;3902;49.474;8.616;2022-12-05T18:37:36;6.60;99.90
7720;DHT22;3902;49.474;8.616;2022-12-05T18:40:03;6.60;99.90
7720;DHT22;3902;49.474;8.616;2022-12-05T18:42:28;6.60;99.90
7720;DHT22;3902;49.474;8.616;2022-12-05T18:44:54;6.60;99.90
7720;DHT22;3902;49.474;8.616;2022-12-05T18:47:19;6.60;99.90
7720;DHT22;3902;49.474;8.616;2022-12-05T18:49:45;6.60;99.90
7720;DHT22;3902;49.474;8.616;2022-12-05T18:52:10;6.60;99.90
7720;DHT22;3902;49.474;8.616;2022-12-05T18:54:36;6.60;99.90
7720;DHT22;3902;49.474;8.616;2022-12-05T18:57:02;6.60;99.90
7720;DHT22;3902;49.474;8.616;2022-12-05T18:59:27;6.60;99.90
7720;DHT22;3902;49.474;8.616;2022-12-05T19:01:55;6.60;99.90
7720;DHT22;3902;49.474;8.616;2022-12-05T19:04:20;6.60;99.90
7720;DHT22;3902;49.474;8.616;2022-12-05T19:06:49;6.60;99.90